sensor_id;sensor_type;location;lat;lon;timestamp;pressure;altitude;pressure_sealevel;temperature;humidity
85094;BME280;75432;49.056;12.004;2024-03-02T00:01:27;95407.75;;;3.19;96.61
85094;BME280;75432;49.056;12.004;2024-03-02T00:03:54;95597.94;;;4.54;96.77
85094;BME280;75432;49.056;12.004;2024-03-02T00:06:21;95436.88;;;3.48;96.64
85094;BME280;75432;49.056;12.004;2024-03-02T00:08:50;95440.50;;;3.18;96.91
85094;BME280;75432;49.056;12.004;2024-03-02T00:11:17;95459.91;;;3.59;97.10
85094;BME280;75432;49.056;12.004;2024-03-02T00:13:45;95643.94;;;4.76;97.11
85094;BME280;75432;49.056;12.004;2024-03-02T00:16:12;95468.84;;;3.69;97.10
85094;BME280;75432;49.056;12.004;2024-03-02T00:18:39;95542.44;;;4.07;97.29
85094;BME280;75432;49.056;12.004;2024-03-02T00:21:06;95586.13;;;4.33;97.45
85094;BME280;75432;49.056;12.004;2024-03-02T00:23:37;95397.84;;;3.26;97.87
85094;BME280;75432;49.056;12.004;2024-03-02T00:26:03;95584.94;;;4.41;97.86
85094;BME280;75432;49.056;12.004;2024-03-02T00:31:09;95195.81;;;1.84;97.59
85094;BME280;75432;49.056;12.004;2024-03-02T00:33:44;95652.72;;;4.76;98.02
85094;BME280;75432;49.056;12.004;2024-03-02T00:36:13;95375.34;;;3.12;98.13
85094;BME280;75432;49.056;12.004;2024-03-02T00:38:48;95524.59;;;4.03;98.04
85094;BME280;75432;49.056;12.004;2024-03-02T00:41:40;95633.59;;;4.74;98.42
85094;BME280;75432;49.056;12.004;2024-03-02T00:44:07;95484.59;;;3.76;98.32
85094;BME280;75432;49.056;12.004;2024-03-02T00:46:39;95380.63;;;3.12;98.23
85094;BME280;75432;49.056;12.004;2024-03-02T00:49:21;95395.66;;;3.23;98.25
85094;BME280;75432;49.056;12.004;2024-03-02T00:51:50;95358.09;;;2.98;98.35
85094;BME280;75432;49.056;12.004;2024-03-02T00:54:22;95416.00;;;3.34;98.25
85094;BME280;75432;49.056;12.004;2024-03-02T00:56:52;95615.78;;;4.58;98.65
85094;BME280;75432;49.056;12.004;2024-03-02T00:59:19;95447.94;;;3.56;98.25
85094;BME280;75432;49.056;12.004;2024-03-02T01:01:45;95415.53;;;3.38;98.33
85094;BME280;75432;49.056;12.004;2024-03-02T01:04:12;95634.38;;;4.75;98.72
85094;BME280;75432;49.056;12.004;2024-03-02T01:06:42;95271.06;;;2.45;98.18
85094;BME280;75432;49.056;12.004;2024-03-02T01:09:09;95442.78;;;3.38;98.56
85094;BME280;75432;49.056;12.004;2024-03-02T01:11:35;95468.59;;;3.71;98.88
85094;BME280;75432;49.056;12.004;2024-03-02T01:14:02;95447.38;;;3.54;98.64
85094;BME280;75432;49.056;12.004;2024-03-02T01:16:28;95544.53;;;4.05;99.09
85094;BME280;75432;49.056;12.004;2024-03-02T01:18:55;95553.03;;;3.96;98.81
85094;BME280;75432;49.056;12.004;2024-03-02T01:21:22;95145.78;;;1.66;98.66
85094;BME280;75432;49.056;12.004;2024-03-02T01:23:48;95607.53;;;4.43;98.95
85094;BME280;75432;49.056;12.004;2024-03-02T01:26:15;95520.09;;;4.03;99.04
85094;BME280;75432;49.056;12.004;2024-03-02T01:28:42;95630.63;;;4.71;99.13
85094;BME280;75432;49.056;12.004;2024-03-02T01:31:08;95603.63;;;4.34;99.19
85094;BME280;75432;49.056;12.004;2024-03-02T01:33:35;95334.78;;;2.83;98.88
85094;BME280;75432;49.056;12.004;2024-03-02T01:36:02;95289.09;;;2.60;98.71
85094;BME280;75432;49.056;12.004;2024-03-02T01:38:28;95344.31;;;2.96;98.79
85094;BME280;75432;49.056;12.004;2024-03-02T01:40:55;95104.16;;;1.33;98.71
85094;BME280;75432;49.056;12.004;2024-03-02T01:43:23;95625.88;;;4.73;98.99
85094;BME280;75432;49.056;12.004;2024-03-02T01:45:49;95540.63;;;3.84;98.97
85094;BME280;75432;49.056;12.004;2024-03-02T01:48:16;95399.31;;;3.34;99.02
85094;BME280;75432;49.056;12.004;2024-03-02T01:50:43;95331.00;;;2.91;98.61
85094;BME280;75432;49.056;12.004;2024-03-02T01:53:09;95149.00;;;1.80;98.49
85094;BME280;75432;49.056;12.004;2024-03-02T01:55:36;95068.25;;;1.09;98.64
85094;BME280;75432;49.056;12.004;2024-03-02T01:58:03;95336.88;;;2.93;98.78
85094;BME280;75432;49.056;12.004;2024-03-02T02:00:30;95385.59;;;2.85;98.99
85094;BME280;75432;49.056;12.004;2024-03-02T02:02:56;95206.69;;;1.76;98.51
85094;BME280;75432;49.056;12.004;2024-03-02T02:05:24;95376.56;;;3.21;99.01
85094;BME280;75432;49.056;12.004;2024-03-02T02:07:51;95074.66;;;1.02;98.90
85094;BME280;75432;49.056;12.004;2024-03-02T02:10:17;95513.03;;;3.69;99.30
85094;BME280;75432;49.056;12.004;2024-03-02T02:12:44;95016.66;;;0.67;99.06
85094;BME280;75432;49.056;12.004;2024-03-02T02:15:30;95396.84;;;3.04;99.38
85094;BME280;75432;49.056;12.004;2024-03-02T02:17:58;95379.22;;;3.21;99.43
85094;BME280;75432;49.056;12.004;2024-03-02T02:20:25;95186.06;;;1.85;99.09
85094;BME280;75432;49.056;12.004;2024-03-02T02:23:02;95412.66;;;3.39;99.65
85094;BME280;75432;49.056;12.004;2024-03-02T02:25:29;95565.72;;;4.33;99.60
85094;BME280;75432;49.056;12.004;2024-03-02T02:27:57;95158.28;;;1.82;99.10
85094;BME280;75432;49.056;12.004;2024-03-02T02:30:29;95451.63;;;3.55;99.51
85094;BME280;75432;49.056;12.004;2024-03-02T02:32:56;95392.34;;;3.16;99.46
85094;BME280;75432;49.056;12.004;2024-03-02T02:35:23;95636.16;;;4.69;99.63
85094;BME280;75432;49.056;12.004;2024-03-02T02:37:54;95564.03;;;4.27;99.69
85094;BME280;75432;49.056;12.004;2024-03-02T02:40:21;95614.94;;;4.69;99.74
85094;BME280;75432;49.056;12.004;2024-03-02T02:42:48;95410.25;;;3.38;99.45
85094;BME280;75432;49.056;12.004;2024-03-02T02:45:15;95399.31;;;3.34;99.53
85094;BME280;75432;49.056;12.004;2024-03-02T02:47:42;95479.88;;;3.90;99.77
85094;BME280;75432;49.056;12.004;2024-03-02T02:50:10;95462.59;;;3.87;99.43
85094;BME280;75432;49.056;12.004;2024-03-02T02:52:39;95365.44;;;3.19;99.36
85094;BME280;75432;49.056;12.004;2024-03-02T02:55:08;95501.72;;;3.97;99.48
85094;BME280;75432;49.056;12.004;2024-03-02T02:57:35;95389.66;;;3.40;99.26
85094;BME280;75432;49.056;12.004;2024-03-02T03:00:08;95388.59;;;3.41;99.29
85094;BME280;75432;49.056;12.004;2024-03-02T03:02:37;95627.50;;;4.74;99.47
85094;BME280;75432;49.056;12.004;2024-03-02T03:05:05;95387.25;;;3.38;99.56
85094;BME280;75432;49.056;12.004;2024-03-02T03:07:32;95601.75;;;4.46;99.70
85094;BME280;75432;49.056;12.004;2024-03-02T03:10:02;95558.00;;;4.44;99.80
85094;BME280;75432;49.056;12.004;2024-03-02T03:12:30;95508.59;;;4.09;99.53
85094;BME280;75432;49.056;12.004;2024-03-02T03:14:57;95518.22;;;4.15;99.61
85094;BME280;75432;49.056;12.004;2024-03-02T03:17:24;95271.66;;;2.59;99.37
85094;BME280;75432;49.056;12.004;2024-03-02T03:19:50;95438.81;;;3.64;98.96
85094;BME280;75432;49.056;12.004;2024-03-02T03:22:17;95368.41;;;3.23;99.50
85094;BME280;75432;49.056;12.004;2024-03-02T03:24:43;95544.47;;;4.28;99.62
85094;BME280;75432;49.056;12.004;2024-03-02T03:27:10;95523.84;;;4.19;99.84
85094;BME280;75432;49.056;12.004;2024-03-02T03:29:38;95565.59;;;4.52;99.71
85094;BME280;75432;49.056;12.004;2024-03-02T03:32:05;95370.13;;;3.29;99.55
85094;BME280;75432;49.056;12.004;2024-03-02T03:34:33;95645.34;;;4.78;99.76
85094;BME280;75432;49.056;12.004;2024-03-02T03:37:01;95389.56;;;3.34;99.75
85094;BME280;75432;49.056;12.004;2024-03-02T03:39:28;95293.78;;;2.81;99.54
85094;BME280;75432;49.056;12.004;2024-03-02T03:41:54;95362.44;;;3.27;99.64
85094;BME280;75432;49.056;12.004;2024-03-02T03:44:21;95465.00;;;3.89;99.72
85094;BME280;75432;49.056;12.004;2024-03-02T03:46:47;95469.03;;;3.91;99.78
85094;BME280;75432;49.056;12.004;2024-03-02T03:49:14;95265.09;;;2.61;99.54
85094;BME280;75432;49.056;12.004;2024-03-02T03:51:40;95233.19;;;2.39;99.58
85094;BME280;75432;49.056;12.004;2024-03-02T03:54:07;95544.66;;;4.39;100.00
85094;BME280;75432;49.056;12.004;2024-03-02T03:56:34;95242.25;;;2.44;99.75
85094;BME280;75432;49.056;12.004;2024-03-02T03:59:00;95131.00;;;1.77;99.56
85094;BME280;75432;49.056;12.004;2024-03-02T04:01:28;95263.50;;;2.49;99.87
85094;BME280;75432;49.056;12.004;2024-03-02T04:03:54;95308.69;;;2.87;99.77
85094;BME280;75432;49.056;12.004;2024-03-02T04:06:21;95390.69;;;3.39;99.87
85094;BME280;75432;49.056;12.004;2024-03-02T04:08:47;95370.25;;;3.22;99.83
85094;BME280;75432;49.056;12.004;2024-03-02T04:11:14;95332.25;;;3.00;99.63
85094;BME280;75432;49.056;12.004;2024-03-02T04:13:41;95041.19;;;0.90;99.39
85094;BME280;75432;49.056;12.004;2024-03-02T04:16:07;95584.16;;;4.40;99.64
85094;BME280;75432;49.056;12.004;2024-03-02T04:18:34;95295.16;;;2.72;99.58
85094;BME280;75432;49.056;12.004;2024-03-02T04:21:01;95420.50;;;3.22;99.51
85094;BME280;75432;49.056;12.004;2024-03-02T04:23:27;94994.59;;;0.26;99.36
85094;BME280;75432;49.056;12.004;2024-03-02T04:25:54;95437.03;;;3.41;99.84
85094;BME280;75432;49.056;12.004;2024-03-02T04:28:21;95614.38;;;4.27;99.94
85094;BME280;75432;49.056;12.004;2024-03-02T04:30:47;95047.78;;;0.70;99.41
85094;BME280;75432;49.056;12.004;2024-03-02T04:33:14;95153.06;;;1.29;99.58
85094;BME280;75432;49.056;12.004;2024-03-02T04:35:41;95032.75;;;1.00;99.63
85094;BME280;75432;49.056;12.004;2024-03-02T04:38:08;95181.91;;;1.54;99.82
85094;BME280;75432;49.056;12.004;2024-03-02T04:40:34;95098.75;;;1.28;99.61
85094;BME280;75432;49.056;12.004;2024-03-02T04:43:01;95636.25;;;4.74;100.00
85094;BME280;75432;49.056;12.004;2024-03-02T04:45:27;95636.47;;;4.73;100.00
85094;BME280;75432;49.056;12.004;2024-03-02T04:47:54;95431.03;;;3.46;99.50
85094;BME280;75432;49.056;12.004;2024-03-02T04:50:20;95588.66;;;4.40;100.00
85094;BME280;75432;49.056;12.004;2024-03-02T04:52:47;95513.00;;;3.92;100.00
85094;BME280;75432;49.056;12.004;2024-03-02T04:55:13;95539.31;;;4.10;100.00
85094;BME280;75432;49.056;12.004;2024-03-02T04:57:51;95469.53;;;3.65;100.00
85094;BME280;75432;49.056;12.004;2024-03-02T05:00:21;95561.28;;;4.22;100.00
85094;BME280;75432;49.056;12.004;2024-03-02T05:02:47;95578.50;;;4.37;100.00
85094;BME280;75432;49.056;12.004;2024-03-02T05:05:14;95338.03;;;2.85;99.87
85094;BME280;75432;49.056;12.004;2024-03-02T05:07:43;95377.88;;;3.07;99.86
85094;BME280;75432;49.056;12.004;2024-03-02T05:10:10;95563.00;;;4.28;99.84
85094;BME280;75432;49.056;12.004;2024-03-02T05:12:41;95425.56;;;3.24;99.82
85094;BME280;75432;49.056;12.004;2024-03-02T05:15:11;95652.91;;;4.87;100.00
85094;BME280;75432;49.056;12.004;2024-03-02T05:17:39;95504.34;;;3.97;100.00
85094;BME280;75432;49.056;12.004;2024-03-02T05:20:07;95280.03;;;2.56;99.81
85094;BME280;75432;49.056;12.004;2024-03-02T05:22:35;95400.03;;;3.29;99.96
85094;BME280;75432;49.056;12.004;2024-03-02T05:25:03;95404.94;;;3.38;99.99
85094;BME280;75432;49.056;12.004;2024-03-02T05:27:30;95378.75;;;3.24;99.97
85094;BME280;75432;49.056;12.004;2024-03-02T05:29:57;95619.81;;;4.61;100.00
85094;BME280;75432;49.056;12.004;2024-03-02T05:32:24;95538.72;;;4.20;100.00
85094;BME280;75432;49.056;12.004;2024-03-02T05:34:51;95388.53;;;3.24;99.71
85094;BME280;75432;49.056;12.004;2024-03-02T05:37:17;95446.34;;;3.55;100.00
85094;BME280;75432;49.056;12.004;2024-03-02T05:39:44;95363.50;;;3.03;99.72
85094;BME280;75432;49.056;12.004;2024-03-02T05:42:10;95501.41;;;3.81;99.80
85094;BME280;75432;49.056;12.004;2024-03-02T05:44:37;95447.22;;;3.61;100.00
85094;BME280;75432;49.056;12.004;2024-03-02T05:47:04;95661.78;;;4.92;100.00
85094;BME280;75432;49.056;12.004;2024-03-02T05:49:30;95585.56;;;4.31;99.74
85094;BME280;75432;49.056;12.004;2024-03-02T05:51:57;95634.19;;;4.65;100.00
85094;BME280;75432;49.056;12.004;2024-03-02T05:54:23;95565.56;;;4.12;100.00
85094;BME280;75432;49.056;12.004;2024-03-02T05:56:50;95405.09;;;3.31;100.00
85094;BME280;75432;49.056;12.004;2024-03-02T05:59:16;95537.72;;;4.09;99.98
85094;BME280;75432;49.056;12.004;2024-03-02T06:01:44;95606.50;;;4.32;100.00
85094;BME280;75432;49.056;12.004;2024-03-02T06:04:11;95510.81;;;3.89;99.93
85094;BME280;75432;49.056;12.004;2024-03-02T06:06:39;95622.44;;;4.61;100.00
85094;BME280;75432;49.056;12.004;2024-03-02T06:09:06;95369.25;;;3.00;100.00
85094;BME280;75432;49.056;12.004;2024-03-02T06:11:35;95594.03;;;4.45;100.00
85094;BME280;75432;49.056;12.004;2024-03-02T06:14:07;95434.72;;;3.45;99.84
85094;BME280;75432;49.056;12.004;2024-03-02T06:16:34;95395.09;;;3.21;100.00
85094;BME280;75432;49.056;12.004;2024-03-02T06:19:01;95669.19;;;4.90;100.00
85094;BME280;75432;49.056;12.004;2024-03-02T06:21:28;95269.38;;;2.39;99.75
85094;BME280;75432;49.056;12.004;2024-03-02T06:23:55;95607.28;;;4.45;100.00
85094;BME280;75432;49.056;12.004;2024-03-02T06:26:21;95642.25;;;4.70;100.00
85094;BME280;75432;49.056;12.004;2024-03-02T06:28:51;95464.72;;;3.62;100.00
85094;BME280;75432;49.056;12.004;2024-03-02T06:31:18;95684.13;;;4.96;100.00
85094;BME280;75432;49.056;12.004;2024-03-02T06:33:44;95685.75;;;4.97;100.00
85094;BME280;75432;49.056;12.004;2024-03-02T06:36:11;95471.63;;;3.63;100.00
85094;BME280;75432;49.056;12.004;2024-03-02T06:38:38;95512.41;;;3.90;100.00
85094;BME280;75432;49.056;12.004;2024-03-02T06:41:09;95685.75;;;4.97;100.00
85094;BME280;75432;49.056;12.004;2024-03-02T06:43:35;95360.19;;;2.96;99.83
85094;BME280;75432;49.056;12.004;2024-03-02T06:46:02;95682.03;;;4.98;100.00
85094;BME280;75432;49.056;12.004;2024-03-02T06:48:29;95377.41;;;3.10;99.90
85094;BME280;75432;49.056;12.004;2024-03-02T06:50:56;95472.75;;;3.67;100.00
85094;BME280;75432;49.056;12.004;2024-03-02T06:53:24;95596.25;;;4.48;100.00
85094;BME280;75432;49.056;12.004;2024-03-02T06:55:51;95336.06;;;2.81;100.00
85094;BME280;75432;49.056;12.004;2024-03-02T06:58:17;95494.81;;;3.84;100.00
85094;BME280;75432;49.056;12.004;2024-03-02T07:00:44;95465.72;;;3.72;100.00
85094;BME280;75432;49.056;12.004;2024-03-02T07:03:10;95687.78;;;5.07;100.00
85094;BME280;75432;49.056;12.004;2024-03-02T07:05:37;95421.59;;;3.50;100.00
85094;BME280;75432;49.056;12.004;2024-03-02T07:08:04;95614.13;;;4.69;100.00
85094;BME280;75432;49.056;12.004;2024-03-02T07:10:31;95642.56;;;4.85;100.00
85094;BME280;75432;49.056;12.004;2024-03-02T07:12:58;95569.84;;;4.41;100.00
85094;BME280;75432;49.056;12.004;2024-03-02T07:15:24;95561.13;;;4.29;100.00
85094;BME280;75432;49.056;12.004;2024-03-02T07:17:54;95693.28;;;5.17;100.00
85094;BME280;75432;49.056;12.004;2024-03-02T07:20:21;95640.63;;;4.69;100.00
85094;BME280;75432;49.056;12.004;2024-03-02T07:22:47;95463.69;;;3.74;100.00
85094;BME280;75432;49.056;12.004;2024-03-02T07:25:14;95536.88;;;4.20;100.00
85094;BME280;75432;49.056;12.004;2024-03-02T07:27:44;95562.28;;;4.33;100.00
85094;BME280;75432;49.056;12.004;2024-03-02T07:30:13;95684.78;;;5.03;100.00
85094;BME280;75432;49.056;12.004;2024-03-02T07:32:40;95699.47;;;5.22;100.00
85094;BME280;75432;49.056;12.004;2024-03-02T07:35:08;95695.97;;;5.05;100.00
85094;BME280;75432;49.056;12.004;2024-03-02T07:37:35;95483.09;;;3.80;100.00
85094;BME280;75432;49.056;12.004;2024-03-02T07:40:01;95547.06;;;3.89;100.00
85094;BME280;75432;49.056;12.004;2024-03-02T07:42:29;95602.47;;;4.42;100.00
85094;BME280;75432;49.056;12.004;2024-03-02T07:44:56;95507.25;;;3.72;100.00
85094;BME280;75432;49.056;12.004;2024-03-02T07:47:22;95527.50;;;3.90;100.00
85094;BME280;75432;49.056;12.004;2024-03-02T07:49:49;95282.66;;;2.21;100.00
85094;BME280;75432;49.056;12.004;2024-03-02T07:52:16;95647.44;;;4.65;100.00
85094;BME280;75432;49.056;12.004;2024-03-02T07:54:42;95476.56;;;3.59;100.00
85094;BME280;75432;49.056;12.004;2024-03-02T07:57:09;95535.22;;;3.79;100.00
85094;BME280;75432;49.056;12.004;2024-03-02T07:59:35;95758.56;;;5.18;100.00
85094;BME280;75432;49.056;12.004;2024-03-02T08:02:03;95530.41;;;3.65;100.00
85094;BME280;75432;49.056;12.004;2024-03-02T08:04:29;95534.41;;;3.79;100.00
85094;BME280;75432;49.056;12.004;2024-03-02T08:06:56;95759.72;;;5.10;100.00
85094;BME280;75432;49.056;12.004;2024-03-02T08:09:23;95769.31;;;5.11;100.00
85094;BME280;75432;49.056;12.004;2024-03-02T08:11:50;95555.16;;;3.59;100.00
85094;BME280;75432;49.056;12.004;2024-03-02T08:14:17;95494.75;;;3.44;100.00
85094;BME280;75432;49.056;12.004;2024-03-02T08:16:43;95602.06;;;3.98;100.00
85094;BME280;75432;49.056;12.004;2024-03-02T08:19:10;95334.25;;;2.47;100.00
85094;BME280;75432;49.056;12.004;2024-03-02T08:21:37;95436.94;;;3.13;100.00
85094;BME280;75432;49.056;12.004;2024-03-02T08:24:04;95645.56;;;4.14;100.00
85094;BME280;75432;49.056;12.004;2024-03-02T08:26:30;95588.03;;;4.09;100.00
85094;BME280;75432;49.056;12.004;2024-03-02T08:28:58;95782.44;;;5.18;100.00
85094;BME280;75432;49.056;12.004;2024-03-02T08:31:25;95764.91;;;5.17;100.00
85094;BME280;75432;49.056;12.004;2024-03-02T08:33:52;95406.16;;;2.95;100.00
85094;BME280;75432;49.056;12.004;2024-03-02T08:36:19;95791.13;;;5.13;100.00
85094;BME280;75432;49.056;12.004;2024-03-02T08:38:46;95325.84;;;2.38;100.00
85094;BME280;75432;49.056;12.004;2024-03-02T08:41:14;95224.13;;;1.66;99.92
85094;BME280;75432;49.056;12.004;2024-03-02T08:43:42;95562.38;;;3.87;100.00
85094;BME280;75432;49.056;12.004;2024-03-02T08:46:09;95514.88;;;3.33;100.00
85094;BME280;75432;49.056;12.004;2024-03-02T08:48:35;95773.00;;;5.10;100.00
85094;BME280;75432;49.056;12.004;2024-03-02T08:51:02;95538.13;;;3.66;100.00
85094;BME280;75432;49.056;12.004;2024-03-02T08:53:32;95745.13;;;4.96;100.00
85094;BME280;75432;49.056;12.004;2024-03-02T08:55:58;95658.78;;;4.49;100.00
85094;BME280;75432;49.056;12.004;2024-03-02T08:58:28;95638.03;;;4.46;100.00
85094;BME280;75432;49.056;12.004;2024-03-02T09:00:54;95629.91;;;4.36;100.00
85094;BME280;75432;49.056;12.004;2024-03-02T09:03:21;95754.03;;;4.90;100.00
85094;BME280;75432;49.056;12.004;2024-03-02T09:05:48;95721.16;;;4.91;100.00
85094;BME280;75432;49.056;12.004;2024-03-02T09:08:14;95369.50;;;2.75;100.00
85094;BME280;75432;49.056;12.004;2024-03-02T09:10:41;95548.09;;;3.88;100.00
85094;BME280;75432;49.056;12.004;2024-03-02T09:13:07;95516.47;;;3.69;100.00
85094;BME280;75432;49.056;12.004;2024-03-02T09:15:34;95714.06;;;4.68;100.00
85094;BME280;75432;49.056;12.004;2024-03-02T09:18:04;95551.91;;;3.92;100.00
85094;BME280;75432;49.056;12.004;2024-03-02T09:20:30;95557.63;;;4.00;100.00
85094;BME280;75432;49.056;12.004;2024-03-02T09:22:57;95581.13;;;3.97;100.00
85094;BME280;75432;49.056;12.004;2024-03-02T09:25:23;95654.38;;;4.66;100.00
85094;BME280;75432;49.056;12.004;2024-03-02T09:27:50;95466.59;;;3.50;100.00
85094;BME280;75432;49.056;12.004;2024-03-02T09:30:17;95601.16;;;4.44;100.00
85094;BME280;75432;49.056;12.004;2024-03-02T09:32:44;95769.38;;;5.56;100.00
85094;BME280;75432;49.056;12.004;2024-03-02T09:35:12;95687.13;;;5.00;100.00
85094;BME280;75432;49.056;12.004;2024-03-02T09:37:39;95767.63;;;5.62;100.00
85094;BME280;75432;49.056;12.004;2024-03-02T09:40:05;95752.13;;;5.42;100.00
85094;BME280;75432;49.056;12.004;2024-03-02T09:42:32;95780.28;;;5.71;100.00
85094;BME280;75432;49.056;12.004;2024-03-02T09:44:59;95708.03;;;5.24;99.77
85094;BME280;75432;49.056;12.004;2024-03-02T09:47:25;95752.03;;;5.65;99.88
85094;BME280;75432;49.056;12.004;2024-03-02T09:49:52;95626.75;;;4.90;99.88
85094;BME280;75432;49.056;12.004;2024-03-02T09:52:19;95687.44;;;5.32;99.90
85094;BME280;75432;49.056;12.004;2024-03-02T09:54:47;95655.88;;;5.02;99.84
85094;BME280;75432;49.056;12.004;2024-03-02T09:57:14;95665.09;;;5.27;99.90
85094;BME280;75432;49.056;12.004;2024-03-02T09:59:41;95680.69;;;5.41;99.78
85094;BME280;75432;49.056;12.004;2024-03-02T10:02:07;95477.22;;;4.18;99.37
85094;BME280;75432;49.056;12.004;2024-03-02T10:04:34;95651.72;;;5.22;99.32
85094;BME280;75432;49.056;12.004;2024-03-02T10:07:15;95727.72;;;5.57;99.52
85094;BME280;75432;49.056;12.004;2024-03-02T10:09:43;95592.16;;;4.85;99.43
85094;BME280;75432;49.056;12.004;2024-03-02T10:12:11;95715.50;;;5.72;99.37
85094;BME280;75432;49.056;12.004;2024-03-02T10:14:39;95386.00;;;3.69;99.24
85094;BME280;75432;49.056;12.004;2024-03-02T10:17:13;95660.06;;;5.43;99.27
85094;BME280;75432;49.056;12.004;2024-03-02T10:19:40;95545.31;;;4.74;98.98
85094;BME280;75432;49.056;12.004;2024-03-02T10:22:07;95770.63;;;5.94;99.09
85094;BME280;75432;49.056;12.004;2024-03-02T10:24:44;95775.28;;;5.87;99.22
85094;BME280;75432;49.056;12.004;2024-03-02T10:27:17;95490.31;;;4.36;98.74
85094;BME280;75432;49.056;12.004;2024-03-02T10:29:46;95377.44;;;3.78;98.95
85094;BME280;75432;49.056;12.004;2024-03-02T10:32:13;95731.97;;;6.03;99.19
85094;BME280;75432;49.056;12.004;2024-03-02T10:34:41;95565.34;;;4.98;98.73
85094;BME280;75432;49.056;12.004;2024-03-02T10:37:08;95758.06;;;6.22;98.83
85094;BME280;75432;49.056;12.004;2024-03-02T10:39:35;95751.94;;;6.22;98.41
85094;BME280;75432;49.056;12.004;2024-03-02T10:42:03;95432.41;;;4.28;98.13
85094;BME280;75432;49.056;12.004;2024-03-02T10:44:30;95446.53;;;4.33;97.67
85094;BME280;75432;49.056;12.004;2024-03-02T10:47:03;95741.47;;;6.15;97.35
85094;BME280;75432;49.056;12.004;2024-03-02T10:49:31;95449.28;;;4.39;98.07
85094;BME280;75432;49.056;12.004;2024-03-02T10:51:58;95614.44;;;5.46;98.39
85094;BME280;75432;49.056;12.004;2024-03-02T10:54:26;95516.31;;;4.84;98.38
85094;BME280;75432;49.056;12.004;2024-03-02T10:56:59;95572.94;;;5.23;98.17
85094;BME280;75432;49.056;12.004;2024-03-02T11:01:57;95438.44;;;4.57;96.97
85094;BME280;75432;49.056;12.004;2024-03-02T11:04:31;95723.91;;;6.48;95.75
85094;BME280;75432;49.056;12.004;2024-03-02T11:07:07;95647.53;;;6.05;96.27
85094;BME280;75432;49.056;12.004;2024-03-02T11:09:35;95664.66;;;6.31;95.47
85094;BME280;75432;49.056;12.004;2024-03-02T11:12:05;95724.75;;;6.70;93.88
85094;BME280;75432;49.056;12.004;2024-03-02T11:14:32;95691.75;;;6.49;95.07
85094;BME280;75432;49.056;12.004;2024-03-02T11:17:01;95644.28;;;6.36;95.39
85094;BME280;75432;49.056;12.004;2024-03-02T11:19:30;95520.66;;;5.57;95.72
85094;BME280;75432;49.056;12.004;2024-03-02T11:21:58;95535.38;;;5.64;95.57
85094;BME280;75432;49.056;12.004;2024-03-02T11:26:53;95486.00;;;5.47;94.08
85094;BME280;75432;49.056;12.004;2024-03-02T11:32:03;95361.25;;;4.87;94.51
85094;BME280;75432;49.056;12.004;2024-03-02T11:36:58;95520.16;;;5.93;94.22
85094;BME280;75432;49.056;12.004;2024-03-02T11:39:26;95493.81;;;5.92;94.04
85094;BME280;75432;49.056;12.004;2024-03-02T11:41:54;95453.38;;;5.68;93.69
85094;BME280;75432;49.056;12.004;2024-03-02T11:44:24;95372.03;;;5.18;94.16
85094;BME280;75432;49.056;12.004;2024-03-02T11:47:01;95464.50;;;5.65;93.76
85094;BME280;75432;49.056;12.004;2024-03-02T11:49:42;95682.03;;;6.98;93.89
85094;BME280;75432;49.056;12.004;2024-03-02T11:52:10;95688.94;;;6.99;94.30
85094;BME280;75432;49.056;12.004;2024-03-02T11:54:39;95441.03;;;5.57;93.61
85094;BME280;75432;49.056;12.004;2024-03-02T11:57:09;95611.41;;;6.64;92.30
85094;BME280;75432;49.056;12.004;2024-03-02T11:59:35;95551.28;;;6.19;93.96
85094;BME280;75432;49.056;12.004;2024-03-02T12:02:02;95611.06;;;6.60;93.96
85094;BME280;75432;49.056;12.004;2024-03-02T12:04:29;95359.31;;;4.99;93.97
85094;BME280;75432;49.056;12.004;2024-03-02T12:06:59;95557.91;;;6.39;93.81
85094;BME280;75432;49.056;12.004;2024-03-02T12:09:30;95622.22;;;6.79;94.22
85094;BME280;75432;49.056;12.004;2024-03-02T12:14:31;95665.56;;;7.01;94.07
85094;BME280;75432;49.056;12.004;2024-03-02T12:16:58;95429.25;;;5.69;92.69
85094;BME280;75432;49.056;12.004;2024-03-02T12:19:26;95439.13;;;5.91;93.21
85094;BME280;75432;49.056;12.004;2024-03-02T12:21:53;95603.19;;;6.92;90.72
85094;BME280;75432;49.056;12.004;2024-03-02T12:24:21;95220.81;;;4.70;91.83
85094;BME280;75432;49.056;12.004;2024-03-02T12:26:49;95053.78;;;3.78;89.81
85094;BME280;75432;49.056;12.004;2024-03-02T12:29:18;95624.00;;;7.49;91.48
85094;BME280;75432;49.056;12.004;2024-03-02T12:31:45;95479.81;;;6.98;90.65
85094;BME280;75432;49.056;12.004;2024-03-02T12:34:15;95620.50;;;8.17;90.35
85094;BME280;75432;49.056;12.004;2024-03-02T12:36:42;95367.88;;;6.68;90.77
85094;BME280;75432;49.056;12.004;2024-03-02T12:39:09;95649.66;;;8.29;90.26
85094;BME280;75432;49.056;12.004;2024-03-02T12:41:38;95468.22;;;7.14;89.97
85094;BME280;75432;49.056;12.004;2024-03-02T12:44:05;95176.59;;;5.51;90.76
85094;BME280;75432;49.056;12.004;2024-03-02T12:46:32;95534.28;;;7.96;90.72
85094;BME280;75432;49.056;12.004;2024-03-02T12:49:08;95389.41;;;7.08;90.03
85094;BME280;75432;49.056;12.004;2024-03-02T12:51:36;95539.03;;;7.89;90.48
85094;BME280;75432;49.056;12.004;2024-03-02T12:54:03;95453.78;;;7.05;90.72
85094;BME280;75432;49.056;12.004;2024-03-02T12:56:31;95392.28;;;6.65;90.67
85094;BME280;75432;49.056;12.004;2024-03-02T12:58:59;95634.44;;;7.92;91.05
85094;BME280;75432;49.056;12.004;2024-03-02T13:01:26;95353.66;;;6.26;90.91
85094;BME280;75432;49.056;12.004;2024-03-02T13:03:53;95617.75;;;8.02;92.04
85094;BME280;75432;49.056;12.004;2024-03-02T13:06:21;95492.72;;;7.53;91.32
85094;BME280;75432;49.056;12.004;2024-03-02T13:08:48;95436.50;;;7.45;90.85
85094;BME280;75432;49.056;12.004;2024-03-02T13:11:16;95228.28;;;6.29;89.94
85094;BME280;75432;49.056;12.004;2024-03-02T13:13:43;95400.13;;;7.65;91.09
85094;BME280;75432;49.056;12.004;2024-03-02T13:16:10;95377.94;;;8.27;91.45